Swaledale, Iowa
Current Conditions -  °F | °C
As of 5:53 PM on Sunday 23 Nov 2014 (Local Time) from KMCW Reporting Station
Overcast Overcast  
Wind Chill: 32°   Ceiling: 1000
Heat Index: 41°   Visibility: 10mi
Dew Point: 39°   Wind: 18mph
Humidity: 93%   Direction: 320°NW
Pressure: 29.39"   Gusts: NA
Location:  42.98°N, 93.32°W
Report Text: KMCW 232353Z AUTO 32016KT 10SM BKN010 OVC034 05/04 A2939 RMK AO2 CIG 008V013 SLP950 60000 T00500039 10111 20050 50000
Loading
Personal Weather Stations






























Interactive Weather Map New forecast layout! Learn more

10-Day Weather Forecast

Advertisements
Track Severe Weather on mobile